Mackinaw River (Illinois), Congerville (05567500)

StateIllinoisLatestPoor (368 cfs)
RiverMackinaw RiverRatingObservedEstimated
Updated2026-05-10 14:45 (1 hour ago)Flood - The river is flooding. Obstacles can be treacherous or deadly. The river should be avoided at this stage for casual trips and definitely for the inexperienced. Trips should be attempted only with protective gear and equipment.Flood(none)2189
Discharge368 cfs (median: 710 cfs)High - The river is high and potentially dangerous, especially for the young and / or inexperienced. Normal stream obstacles are sometimes difficult to navigate. Extended distances can be attempted, but canoe travel may not be advisable.High30001096
Height2.33 feetGood - Conditions are ideal for a canoe or kayak. Boats typically will drag on fewer than one-quarter of riffles, if at all, and portages are unnecessary or rare. Normal float lengths can be attempted without a problem.Good(none)596
TrendFalling (falling over 24 hours)Low - River is low but can still be floated. Some riffles are okay but most come with significant dragging and might need a portage. Float lengths should be reduced to accommodate low flow, dragging, and portages.Low(none)409
USGSExternal icon USGS Site (External icon Duck Duck Go Maps)Poor - River is too low to float comfortably. Most or all riffles will drag or must be portaged and some obstacles (such as slick shelf rock) cause undue problems. Avoid the river at this stage for casual paddling trips.Poor(none)45

Trending Data

Plot Image

Trips for Mackinaw River (Illinois), Congerville (05567500)

DateStartEndDistanceConditionDischargeHeightFishingDetails
Click for details2008-06-05 Cemetery (1700N South Road) Dee Mac Road Bridge Total trip distance: 7.0 miles7.0 High 3940 8.95 None NoneNone Fillmore, Brent
Fillmore, Brian
Fillmore, Rebecca
Fillmore, Tina
Fillmore, Brent; Fillmore, Brian; Fillmore, Rebecca; Fillmore, Tina
No notes for this trip<i>No notes for this trip</i> USGS Gauge Data:
Congerville (05567500)
Discharge: 3940
Height: 8.95
<b>USGS Gauge Data:</b></br />Congerville (05567500)<br />Discharge: 3940<br />Height: 8.95
Source: FillmoreSource: Fillmore

A total of 1 rows are displayed.

Trip Summary for Mackinaw River (Illinois), Congerville (05567500)

Miles7
Trips1
People4
Dates1
Years1
Months1
Rows1
Sources1

Condition Descriptions

Fishing Conditions

Fish Species

Notes

Classic Trip List

The classic River Trips application is still available for use. It is updated with the new system using a data retrofit. It is no longer maintained. The original River Trips application is no longer updated (as of 1 Dec 2016) but can be checked for errors or for the condition of the data before it was converted to the new system.

Gauge Data Table

ObservationHeightDischargeMaximum
Discharge
Minimum
Discharge
Mean
Discharge
P05P10P20P25P50
(Median)
P75P80P90P95
2026-05-10 14:45 2.33 368 6860 (1998) 107 (1989) 979 166 193 293 317 710 1160 1270 1750 3120
2026-05-10 13:45 2.34 372 6860 (1998) 107 (1989) 979 166 193 293 317 710 1160 1270 1750 3120
2026-05-10 12:45 2.33 368 6860 (1998) 107 (1989) 979 166 193 293 317 710 1160 1270 1750 3120
2026-05-10 11:45 2.35 375 6860 (1998) 107 (1989) 979 166 193 293 317 710 1160 1270 1750 3120
2026-05-10 10:45 2.36 378 6860 (1998) 107 (1989) 979 166 193 293 317 710 1160 1270 1750 3120
2026-05-10 09:45 2.37 381 6860 (1998) 107 (1989) 979 166 193 293 317 710 1160 1270 1750 3120
2026-05-10 08:45 2.37 381 6860 (1998) 107 (1989) 979 166 193 293 317 710 1160 1270 1750 3120
2026-05-10 07:45 2.38 385 6860 (1998) 107 (1989) 979 166 193 293 317 710 1160 1270 1750 3120
2026-05-10 06:45 2.39 388 6860 (1998) 107 (1989) 979 166 193 293 317 710 1160 1270 1750 3120
2026-05-10 05:45 2.39 388 6860 (1998) 107 (1989) 979 166 193 293 317 710 1160 1270 1750 3120
2026-05-10 04:45 2.40 391 6860 (1998) 107 (1989) 979 166 193 293 317 710 1160 1270 1750 3120
2026-05-10 03:45 2.40 391 6860 (1998) 107 (1989) 979 166 193 293 317 710 1160 1270 1750 3120
2026-05-10 02:45 2.41 395 6860 (1998) 107 (1989) 979 166 193 293 317 710 1160 1270 1750 3120
2026-05-10 01:45 2.42 398 6860 (1998) 107 (1989) 979 166 193 293 317 710 1160 1270 1750 3120
2026-05-10 00:45 2.42 398 6860 (1998) 107 (1989) 979 166 193 293 317 710 1160 1270 1750 3120
2026-05-09 23:45 2.43 401 6860 (1998) 107 (1989) 979 166 193 293 317 710 1160 1270 1750 3120
2026-05-09 22:45 2.43 401 11700 (1998) 99 (1989) 981 156 200 300 346 686 1260 1340 1780 2110
2026-05-09 21:45 2.44 405 11700 (1998) 99 (1989) 981 156 200 300 346 686 1260 1340 1780 2110
2026-05-09 20:45 2.44 405 11700 (1998) 99 (1989) 981 156 200 300 346 686 1260 1340 1780 2110
2026-05-09 19:45 2.45 408 11700 (1998) 99 (1989) 981 156 200 300 346 686 1260 1340 1780 2110
2026-05-09 18:45 2.45 408 11700 (1998) 99 (1989) 981 156 200 300 346 686 1260 1340 1780 2110
2026-05-09 17:45 2.45 408 11700 (1998) 99 (1989) 981 156 200 300 346 686 1260 1340 1780 2110
2026-05-09 16:45 2.45 408 11700 (1998) 99 (1989) 981 156 200 300 346 686 1260 1340 1780 2110
2026-05-09 15:45 2.46 411 11700 (1998) 99 (1989) 981 156 200 300 346 686 1260 1340 1780 2110
2026-05-09 14:45 2.44 405 11700 (1998) 99 (1989) 981 156 200 300 346 686 1260 1340 1780 2110
2026-05-09 13:45 2.46 411 11700 (1998) 99 (1989) 981 156 200 300 346 686 1260 1340 1780 2110
2026-05-09 12:45 2.46 411 11700 (1998) 99 (1989) 981 156 200 300 346 686 1260 1340 1780 2110
2026-05-09 11:45 2.47 415 11700 (1998) 99 (1989) 981 156 200 300 346 686 1260 1340 1780 2110
2026-05-09 10:45 2.47 415 11700 (1998) 99 (1989) 981 156 200 300 346 686 1260 1340 1780 2110
2026-05-09 09:45 2.49 422 11700 (1998) 99 (1989) 981 156 200 300 346 686 1260 1340 1780 2110
2026-05-09 08:45 2.47 415 11700 (1998) 99 (1989) 981 156 200 300 346 686 1260 1340 1780 2110
2026-05-09 07:45 2.48 418 11700 (1998) 99 (1989) 981 156 200 300 346 686 1260 1340 1780 2110
2026-05-09 06:45 2.47 415 11700 (1998) 99 (1989) 981 156 200 300 346 686 1260 1340 1780 2110
2026-05-09 05:45 2.46 411 11700 (1998) 99 (1989) 981 156 200 300 346 686 1260 1340 1780 2110
2026-05-09 04:45 2.48 418 11700 (1998) 99 (1989) 981 156 200 300 346 686 1260 1340 1780 2110
2026-05-09 03:45 2.48 418 11700 (1998) 99 (1989) 981 156 200 300 346 686 1260 1340 1780 2110
2026-05-09 02:45 2.49 422 11700 (1998) 99 (1989) 981 156 200 300 346 686 1260 1340 1780 2110
2026-05-09 01:45 2.49 422 11700 (1998) 99 (1989) 981 156 200 300 346 686 1260 1340 1780 2110
2026-05-09 00:45 2.49 422 11700 (1998) 99 (1989) 981 156 200 300 346 686 1260 1340 1780 2110
2026-05-08 23:45 2.50 425 11700 (1998) 99 (1989) 981 156 200 300 346 686 1260 1340 1780 2110
2026-05-08 22:45 2.50 425 7530 (1998) 93 (1989) 882 163 194 301 367 603 1160 1320 1870 2280
2026-05-08 21:45 2.50 425 7530 (1998) 93 (1989) 882 163 194 301 367 603 1160 1320 1870 2280
2026-05-08 20:45 2.51 428 7530 (1998) 93 (1989) 882 163 194 301 367 603 1160 1320 1870 2280
2026-05-08 19:45 2.51 428 7530 (1998) 93 (1989) 882 163 194 301 367 603 1160 1320 1870 2280
2026-05-08 18:45 2.50 425 7530 (1998) 93 (1989) 882 163 194 301 367 603 1160 1320 1870 2280
2026-05-08 17:45 2.51 428 7530 (1998) 93 (1989) 882 163 194 301 367 603 1160 1320 1870 2280
2026-05-08 16:45 2.51 428 7530 (1998) 93 (1989) 882 163 194 301 367 603 1160 1320 1870 2280
2026-05-08 15:45 2.49 422 7530 (1998) 93 (1989) 882 163 194 301 367 603 1160 1320 1870 2280
2026-05-08 14:45 2.51 428 7530 (1998) 93 (1989) 882 163 194 301 367 603 1160 1320 1870 2280
2026-05-08 13:45 2.51 428 7530 (1998) 93 (1989) 882 163 194 301 367 603 1160 1320 1870 2280
2026-05-08 12:45 2.51 428 7530 (1998) 93 (1989) 882 163 194 301 367 603 1160 1320 1870 2280
2026-05-08 11:45 2.51 428 7530 (1998) 93 (1989) 882 163 194 301 367 603 1160 1320 1870 2280
2026-05-08 10:45 2.50 425 7530 (1998) 93 (1989) 882 163 194 301 367 603 1160 1320 1870 2280
2026-05-08 09:45 2.49 422 7530 (1998) 93 (1989) 882 163 194 301 367 603 1160 1320 1870 2280
2026-05-08 08:45 2.49 422 7530 (1998) 93 (1989) 882 163 194 301 367 603 1160 1320 1870 2280
2026-05-08 07:45 2.51 428 7530 (1998) 93 (1989) 882 163 194 301 367 603 1160 1320 1870 2280
2026-05-08 06:45 2.50 425 7530 (1998) 93 (1989) 882 163 194 301 367 603 1160 1320 1870 2280
2026-05-08 05:45 2.50 425 7530 (1998) 93 (1989) 882 163 194 301 367 603 1160 1320 1870 2280
2026-05-08 04:45 2.51 428 7530 (1998) 93 (1989) 882 163 194 301 367 603 1160 1320 1870 2280
2026-05-08 03:45 2.50 425 7530 (1998) 93 (1989) 882 163 194 301 367 603 1160 1320 1870 2280
2026-05-08 02:45 2.50 425 7530 (1998) 93 (1989) 882 163 194 301 367 603 1160 1320 1870 2280
2026-05-08 01:45 2.51 428 7530 (1998) 93 (1989) 882 163 194 301 367 603 1160 1320 1870 2280
2026-05-08 00:45 2.51 428 7530 (1998) 93 (1989) 882 163 194 301 367 603 1160 1320 1870 2280
2026-05-07 23:45 2.51 428 7530 (1998) 93 (1989) 882 163 194 301 367 603 1160 1320 1870 2280
2026-05-07 22:45 2.52 432 4490 (1998) 102 (1989) 819 161 196 312 378 542 999 1210 1540 3000
2026-05-07 21:45 2.52 432 4490 (1998) 102 (1989) 819 161 196 312 378 542 999 1210 1540 3000
2026-05-07 20:45 2.52 432 4490 (1998) 102 (1989) 819 161 196 312 378 542 999 1210 1540 3000
2026-05-07 19:45 2.53 435 4490 (1998) 102 (1989) 819 161 196 312 378 542 999 1210 1540 3000
2026-05-07 18:45 2.53 435 4490 (1998) 102 (1989) 819 161 196 312 378 542 999 1210 1540 3000
2026-05-07 17:45 2.50 425 4490 (1998) 102 (1989) 819 161 196 312 378 542 999 1210 1540 3000
2026-05-07 16:45 2.54 439 4490 (1998) 102 (1989) 819 161 196 312 378 542 999 1210 1540 3000
2026-05-07 15:45 2.54 439 4490 (1998) 102 (1989) 819 161 196 312 378 542 999 1210 1540 3000
2026-05-07 14:45 2.52 432 4490 (1998) 102 (1989) 819 161 196 312 378 542 999 1210 1540 3000
2026-05-07 13:45 2.53 435 4490 (1998) 102 (1989) 819 161 196 312 378 542 999 1210 1540 3000
2026-05-07 12:45 2.53 435 4490 (1998) 102 (1989) 819 161 196 312 378 542 999 1210 1540 3000
2026-05-07 11:45 2.52 432 4490 (1998) 102 (1989) 819 161 196 312 378 542 999 1210 1540 3000
2026-05-07 10:45 2.55 442 4490 (1998) 102 (1989) 819 161 196 312 378 542 999 1210 1540 3000
2026-05-07 09:45 2.55 442 4490 (1998) 102 (1989) 819 161 196 312 378 542 999 1210 1540 3000
2026-05-07 08:45 2.56 446 4490 (1998) 102 (1989) 819 161 196 312 378 542 999 1210 1540 3000
2026-05-07 07:45 2.58 453 4490 (1998) 102 (1989) 819 161 196 312 378 542 999 1210 1540 3000
2026-05-07 06:45 2.59 456 4490 (1998) 102 (1989) 819 161 196 312 378 542 999 1210 1540 3000
2026-05-07 05:45 2.59 456 4490 (1998) 102 (1989) 819 161 196 312 378 542 999 1210 1540 3000
2026-05-07 04:45 2.60 460 4490 (1998) 102 (1989) 819 161 196 312 378 542 999 1210 1540 3000
2026-05-07 03:45 2.61 464 4490 (1998) 102 (1989) 819 161 196 312 378 542 999 1210 1540 3000
2026-05-07 02:45 2.61 464 4490 (1998) 102 (1989) 819 161 196 312 378 542 999 1210 1540 3000
2026-05-07 01:45 2.62 467 4490 (1998) 102 (1989) 819 161 196 312 378 542 999 1210 1540 3000
2026-05-07 00:45 2.63 471 4490 (1998) 102 (1989) 819 161 196 312 378 542 999 1210 1540 3000
2026-05-06 23:45 2.64 474 4490 (1998) 102 (1989) 819 161 196 312 378 542 999 1210 1540 3000
2026-05-06 22:45 2.65 478 4090 (1991) 107 (1989) 803 171 214 311 378 541 979 1180 1600 2540
2026-05-06 21:45 2.66 482 4090 (1991) 107 (1989) 803 171 214 311 378 541 979 1180 1600 2540
2026-05-06 20:45 2.67 485 4090 (1991) 107 (1989) 803 171 214 311 378 541 979 1180 1600 2540
2026-05-06 19:45 2.68 489 4090 (1991) 107 (1989) 803 171 214 311 378 541 979 1180 1600 2540
2026-05-06 18:45 2.69 493 4090 (1991) 107 (1989) 803 171 214 311 378 541 979 1180 1600 2540
2026-05-06 17:45 2.70 496 4090 (1991) 107 (1989) 803 171 214 311 378 541 979 1180 1600 2540
2026-05-06 16:45 2.71 500 4090 (1991) 107 (1989) 803 171 214 311 378 541 979 1180 1600 2540
2026-05-06 15:45 2.71 500 4090 (1991) 107 (1989) 803 171 214 311 378 541 979 1180 1600 2540
2026-05-06 14:45 2.72 504 4090 (1991) 107 (1989) 803 171 214 311 378 541 979 1180 1600 2540
2026-05-06 13:45 2.75 515 4090 (1991) 107 (1989) 803 171 214 311 378 541 979 1180 1600 2540
2026-05-06 12:45 2.73 507 4090 (1991) 107 (1989) 803 171 214 311 378 541 979 1180 1600 2540
2026-05-06 11:45 2.75 515 4090 (1991) 107 (1989) 803 171 214 311 378 541 979 1180 1600 2540
2026-05-06 10:45 2.77 522 4090 (1991) 107 (1989) 803 171 214 311 378 541 979 1180 1600 2540
2026-05-06 09:45 2.78 526 4090 (1991) 107 (1989) 803 171 214 311 378 541 979 1180 1600 2540
2026-05-06 08:45 2.80 534 4090 (1991) 107 (1989) 803 171 214 311 378 541 979 1180 1600 2540
2026-05-06 07:45 2.80 534 4090 (1991) 107 (1989) 803 171 214 311 378 541 979 1180 1600 2540
2026-05-06 06:45 2.81 537 4090 (1991) 107 (1989) 803 171 214 311 378 541 979 1180 1600 2540
2026-05-06 05:45 2.82 541 4090 (1991) 107 (1989) 803 171 214 311 378 541 979 1180 1600 2540
2026-05-06 04:45 2.82 541 4090 (1991) 107 (1989) 803 171 214 311 378 541 979 1180 1600 2540
2026-05-06 03:45 2.83 545 4090 (1991) 107 (1989) 803 171 214 311 378 541 979 1180 1600 2540
2026-05-06 02:45 2.83 545 4090 (1991) 107 (1989) 803 171 214 311 378 541 979 1180 1600 2540
2026-05-06 01:45 2.84 549 4090 (1991) 107 (1989) 803 171 214 311 378 541 979 1180 1600 2540
2026-05-06 00:45 2.85 553 4090 (1991) 107 (1989) 803 171 214 311 378 541 979 1180 1600 2540
2026-05-05 23:45 2.86 557 4090 (1991) 107 (1989) 803 171 214 311 378 541 979 1180 1600 2540
2026-05-05 22:45 2.87 560 3940 (2019) 108 (1989) 807 179 233 311 342 564 1040 1330 1770 2200
2026-05-05 21:45 2.88 564 3940 (2019) 108 (1989) 807 179 233 311 342 564 1040 1330 1770 2200
2026-05-05 20:45 2.89 568 3940 (2019) 108 (1989) 807 179 233 311 342 564 1040 1330 1770 2200
2026-05-05 19:45 2.90 572 3940 (2019) 108 (1989) 807 179 233 311 342 564 1040 1330 1770 2200
2026-05-05 18:45 2.92 580 3940 (2019) 108 (1989) 807 179 233 311 342 564 1040 1330 1770 2200
2026-05-05 17:45 2.93 584 3940 (2019) 108 (1989) 807 179 233 311 342 564 1040 1330 1770 2200
2026-05-05 16:45 2.94 588 3940 (2019) 108 (1989) 807 179 233 311 342 564 1040 1330 1770 2200
2026-05-05 15:45 2.95 592 3940 (2019) 108 (1989) 807 179 233 311 342 564 1040 1330 1770 2200
2026-05-05 14:45 2.95 592 3940 (2019) 108 (1989) 807 179 233 311 342 564 1040 1330 1770 2200
2026-05-05 13:45 2.96 596 3940 (2019) 108 (1989) 807 179 233 311 342 564 1040 1330 1770 2200
2026-05-05 12:45 2.96 596 3940 (2019) 108 (1989) 807 179 233 311 342 564 1040 1330 1770 2200
2026-05-05 11:45 2.97 600 3940 (2019) 108 (1989) 807 179 233 311 342 564 1040 1330 1770 2200
2026-05-05 10:45 2.97 600 3940 (2019) 108 (1989) 807 179 233 311 342 564 1040 1330 1770 2200
2026-05-05 09:45 2.98 604 3940 (2019) 108 (1989) 807 179 233 311 342 564 1040 1330 1770 2200
2026-05-05 08:45 2.99 608 3940 (2019) 108 (1989) 807 179 233 311 342 564 1040 1330 1770 2200
2026-05-05 07:45 2.99 608 3940 (2019) 108 (1989) 807 179 233 311 342 564 1040 1330 1770 2200
2026-05-05 06:45 3.00 612 3940 (2019) 108 (1989) 807 179 233 311 342 564 1040 1330 1770 2200
2026-05-05 05:45 3.01 616 3940 (2019) 108 (1989) 807 179 233 311 342 564 1040 1330 1770 2200
2026-05-05 04:45 3.00 612 3940 (2019) 108 (1989) 807 179 233 311 342 564 1040 1330 1770 2200
2026-05-05 03:45 2.99 608 3940 (2019) 108 (1989) 807 179 233 311 342 564 1040 1330 1770 2200
2026-05-05 02:45 2.99 608 3940 (2019) 108 (1989) 807 179 233 311 342 564 1040 1330 1770 2200
2026-05-05 01:45 2.98 604 3940 (2019) 108 (1989) 807 179 233 311 342 564 1040 1330 1770 2200
2026-05-05 00:45 2.98 604 3940 (2019) 108 (1989) 807 179 233 311 342 564 1040 1330 1770 2200
2026-05-04 23:45 2.97 600 3940 (2019) 108 (1989) 807 179 233 311 342 564 1040 1330 1770 2200
2026-05-04 22:45 2.97 600 7490 (2019) 111 (1989) 875 182 208 285 334 552 1040 1420 2060 2250
2026-05-04 21:45 2.97 600 7490 (2019) 111 (1989) 875 182 208 285 334 552 1040 1420 2060 2250
2026-05-04 20:45 2.94 588 7490 (2019) 111 (1989) 875 182 208 285 334 552 1040 1420 2060 2250
2026-05-04 19:45 2.93 584 7490 (2019) 111 (1989) 875 182 208 285 334 552 1040 1420 2060 2250
2026-05-04 18:45 2.93 584 7490 (2019) 111 (1989) 875 182 208 285 334 552 1040 1420 2060 2250
2026-05-04 17:45 2.93 584 7490 (2019) 111 (1989) 875 182 208 285 334 552 1040 1420 2060 2250
2026-05-04 16:45 2.93 584 7490 (2019) 111 (1989) 875 182 208 285 334 552 1040 1420 2060 2250
2026-05-04 15:45 2.94 588 7490 (2019) 111 (1989) 875 182 208 285 334 552 1040 1420 2060 2250
2026-05-04 14:45 2.95 592 7490 (2019) 111 (1989) 875 182 208 285 334 552 1040 1420 2060 2250
2026-05-04 13:45 2.97 600 7490 (2019) 111 (1989) 875 182 208 285 334 552 1040 1420 2060 2250
2026-05-04 12:45 2.96 596 7490 (2019) 111 (1989) 875 182 208 285 334 552 1040 1420 2060 2250
2026-05-04 11:45 2.97 600 7490 (2019) 111 (1989) 875 182 208 285 334 552 1040 1420 2060 2250
2026-05-04 10:45 2.98 604 7490 (2019) 111 (1989) 875 182 208 285 334 552 1040 1420 2060 2250
2026-05-04 09:45 3.01 616 7490 (2019) 111 (1989) 875 182 208 285 334 552 1040 1420 2060 2250
2026-05-04 08:45 3.01 616 7490 (2019) 111 (1989) 875 182 208 285 334 552 1040 1420 2060 2250
2026-05-04 07:45 3.04 628 7490 (2019) 111 (1989) 875 182 208 285 334 552 1040 1420 2060 2250
2026-05-04 06:45 3.05 632 7490 (2019) 111 (1989) 875 182 208 285 334 552 1040 1420 2060 2250
2026-05-04 05:45 3.06 636 7490 (2019) 111 (1989) 875 182 208 285 334 552 1040 1420 2060 2250
2026-05-04 04:45 3.08 644 7490 (2019) 111 (1989) 875 182 208 285 334 552 1040 1420 2060 2250
2026-05-04 03:45 3.09 648 7490 (2019) 111 (1989) 875 182 208 285 334 552 1040 1420 2060 2250
2026-05-04 02:45 3.10 653 7490 (2019) 111 (1989) 875 182 208 285 334 552 1040 1420 2060 2250
2026-05-04 01:45 3.10 653 7490 (2019) 111 (1989) 875 182 208 285 334 552 1040 1420 2060 2250
2026-05-04 00:45 3.11 657 7490 (2019) 111 (1989) 875 182 208 285 334 552 1040 1420 2060 2250
2026-05-03 23:45 3.11 657 7490 (2019) 111 (1989) 875 182 208 285 334 552 1040 1420 2060 2250
2026-05-03 22:45 3.11 657 13200 (2019) 87 (1977) 1070 142 215 308 359 583 1100 1280 2430 3060
2026-05-03 21:45 3.11 657 13200 (2019) 87 (1977) 1070 142 215 308 359 583 1100 1280 2430 3060
2026-05-03 20:45 3.12 661 13200 (2019) 87 (1977) 1070 142 215 308 359 583 1100 1280 2430 3060
2026-05-03 19:45 3.12 661 13200 (2019) 87 (1977) 1070 142 215 308 359 583 1100 1280 2430 3060
2026-05-03 18:45 3.13 665 13200 (2019) 87 (1977) 1070 142 215 308 359 583 1100 1280 2430 3060
2026-05-03 17:45 3.13 665 13200 (2019) 87 (1977) 1070 142 215 308 359 583 1100 1280 2430 3060
2026-05-03 16:45 3.12 661 13200 (2019) 87 (1977) 1070 142 215 308 359 583 1100 1280 2430 3060
2026-05-03 15:45 3.12 661 13200 (2019) 87 (1977) 1070 142 215 308 359 583 1100 1280 2430 3060
2026-05-03 14:45 3.14 669 13200 (2019) 87 (1977) 1070 142 215 308 359 583 1100 1280 2430 3060
2026-05-03 13:45 3.15 673 13200 (2019) 87 (1977) 1070 142 215 308 359 583 1100 1280 2430 3060
2026-05-03 12:45 3.15 673 13200 (2019) 87 (1977) 1070 142 215 308 359 583 1100 1280 2430 3060
2026-05-03 11:45 3.17 682 13200 (2019) 87 (1977) 1070 142 215 308 359 583 1100 1280 2430 3060
2026-05-03 10:45 3.18 686 13200 (2019) 87 (1977) 1070 142 215 308 359 583 1100 1280 2430 3060
2026-05-03 09:45 3.19 690 13200 (2019) 87 (1977) 1070 142 215 308 359 583 1100 1280 2430 3060
2026-05-03 08:45 3.21 699 13200 (2019) 87 (1977) 1070 142 215 308 359 583 1100 1280 2430 3060
2026-05-03 07:45 3.22 703 13200 (2019) 87 (1977) 1070 142 215 308 359 583 1100 1280 2430 3060
2026-05-03 06:45 3.24 712 13200 (2019) 87 (1977) 1070 142 215 308 359 583 1100 1280 2430 3060
2026-05-03 05:45 3.25 716 13200 (2019) 87 (1977) 1070 142 215 308 359 583 1100 1280 2430 3060
2026-05-03 04:45 3.27 725 13200 (2019) 87 (1977) 1070 142 215 308 359 583 1100 1280 2430 3060
2026-05-03 03:45 3.28 729 13200 (2019) 87 (1977) 1070 142 215 308 359 583 1100 1280 2430 3060
2026-05-03 02:45 3.29 733 13200 (2019) 87 (1977) 1070 142 215 308 359 583 1100 1280 2430 3060
2026-05-03 01:45 3.30 738 13200 (2019) 87 (1977) 1070 142 215 308 359 583 1100 1280 2430 3060
2026-05-03 00:45 3.32 746 13200 (2019) 87 (1977) 1070 142 215 308 359 583 1100 1280 2430 3060
2026-05-02 23:45 3.33 751 13200 (2019) 87 (1977) 1070 142 215 308 359 583 1100 1280 2430 3060

A total of 184 rows are displayed for years 1945 through 2025.